»·PEaware :: N251SM KSNA-KCRQ

N251SM :: KSNA-KCRQ

FLIGHT INFORMATION

Flight Status: Arrived
Operator: Privately registered:
United States
More flights under this callsign
Pilot: John A. (24927)
Aircraft: BEECH AIRCRAFT BARON
(BE58)
More flights by this aircraft type
Origin: KSNA John Wayne-Orange Co
United States
Destination: KCRQ McClellan-Palomar
United States
More flights between these airports :: More routes between these airports
Route: +V23 OCN
File this flight plan on PilotEdge
Remarks:
Altitude:
(Current/Filed)
5,000ft
Speed:
(Current/Filed)
170kts
Departed: 30-Nov-20 08:32 PM
Arrived: 30-Nov-20 08:59 PM
Distance/Time
Traveled:
44nm/0:27
Distance/Time
To Go:
Arrived

Flight Plot

Page will automatically refresh every two minutes.


Map Options




Map Legend


Flown Route
Filed Route
Departure Airport
Arrival Airport
Navaid (VOR, NDB)
Fix

Horizontal Profiles

Position Reports

Time Latitude Longitude Heading Altitude Ground
Speed
30-Nov-20 20:09 33.667744 -117.871437 41 59ft 0kts
30-Nov-20 20:10 33.667744 -117.871437 41 59ft 0kts
30-Nov-20 20:11 33.667744 -117.871437 41 59ft 0kts
30-Nov-20 20:12 33.667744 -117.871437 41 59ft 0kts
30-Nov-20 20:13 33.667744 -117.871437 41 59ft 0kts
30-Nov-20 20:14 33.667744 -117.871437 41 59ft 0kts
30-Nov-20 20:15 33.667744 -117.871437 41 59ft 0kts
30-Nov-20 20:16 33.667744 -117.871437 41 59ft 0kts
30-Nov-20 20:17 33.667744 -117.871437 41 59ft 0kts
30-Nov-20 20:18 33.667744 -117.871437 41 59ft 0kts
30-Nov-20 20:18 33.667744 -117.871437 41 59ft 0kts
30-Nov-20 20:20 33.667744 -117.871437 41 59ft 0kts
30-Nov-20 20:20 33.667744 -117.871437 41 59ft 0kts
30-Nov-20 20:21 33.667744 -117.871437 41 59ft 0kts
30-Nov-20 20:22 33.667744 -117.871437 41 59ft 0kts
30-Nov-20 20:23 33.667744 -117.871437 41 59ft 0kts
30-Nov-20 20:24 33.667744 -117.871437 41 59ft 0kts
30-Nov-20 20:25 33.668733 -117.871308 40 59ft 25kts
30-Nov-20 20:26 33.674465 -117.866846 27 59ft 14kts
30-Nov-20 20:27 33.679508 -117.863642 27 59ft 14kts
30-Nov-20 20:28 33.679956 -117.863613 300 59ft 0kts
30-Nov-20 20:29 33.679956 -117.863613 300 59ft 0kts
30-Nov-20 20:30 33.679956 -117.863613 300 59ft 0kts
30-Nov-20 20:31 33.666182 -117.874143 213 651ft 124kts
30-Nov-20 20:32 33.626302 -117.882955 185 1778ft 143kts
30-Nov-20 20:33 33.590707 -117.887131 185 2855ft 124kts
30-Nov-20 20:34 33.554590 -117.891275 185 3959ft 130kts
30-Nov-20 20:35 33.529586 -117.872853 101 5025ft 123kts
30-Nov-20 20:36 33.518747 -117.817589 101 4990ft 193kts
30-Nov-20 20:37 33.502281 -117.754682 114 4988ft 200kts
30-Nov-20 20:38 33.470585 -117.699624 129 4988ft 201kts
30-Nov-20 20:39 33.436162 -117.646853 122 4988ft 200kts
30-Nov-20 20:40 33.400951 -117.595445 136 4988ft 201kts
30-Nov-20 20:41 33.359458 -117.550587 135 4988ft 201kts
30-Nov-20 20:42 33.318710 -117.504766 135 4988ft 201kts
30-Nov-20 20:43 33.277944 -117.459041 135 4988ft 201kts
30-Nov-20 20:44 33.241929 -117.418118 120 4980ft 158kts
30-Nov-20 20:45 33.242396 -117.369661 81 4985ft 144kts
30-Nov-20 20:46 33.246771 -117.321414 81 4995ft 166kts
30-Nov-20 20:47 33.252783 -117.260059 81 4985ft 195kts
30-Nov-20 20:48 33.256387 -117.194763 100 4983ft 199kts
30-Nov-20 20:49 33.244108 -117.130202 101 4980ft 200kts
30-Nov-20 20:50 33.231758 -117.065282 101 4986ft 200kts
30-Nov-20 20:51 33.206654 -117.011366 168 4879ft 206kts
30-Nov-20 20:52 33.166220 -117.047510 254 3739ft 182kts
30-Nov-20 20:53 33.157316 -117.099373 260 3394ft 146kts
30-Nov-20 20:54 33.149331 -117.149413 259 2566ft 159kts
30-Nov-20 20:55 33.142186 -117.193728 260 1791ft 110kts
30-Nov-20 20:56 33.136501 -117.229075 259 1147ft 107kts
30-Nov-20 20:57 33.130957 -117.263872 258 535ft 108kts
30-Nov-20 20:58 33.127448 -117.280172 244 334ft 0kts
30-Nov-20 20:59 33.128144 -117.275506 83 334ft 20kts
30-Nov-20 21:00 33.127715 -117.274840 165 334ft 0kts
30-Nov-20 21:01 33.127715 -117.274840 165 334ft 0kts

Navigation Log

Ident Type
Flight plan parsing failed, navigation log unavailable